Time;durP1;ratioP1;P1;durP2;ratioP2;P2;SDS_P1;SDS_P2;PMS_P1;PMS_P2;Temp;Humidity;BMP_temperature;BMP_pressure;BME280_temperature;BME280_humidity;BME280_pressure;Samples;Min_cycle;Max_cycle;Signal;HPM_P1;HPM_P2
2022/01/08 00:00:33;;;;;;;23.92;12.70;;;;;;;5.46;89.71;100454.28;5049786;28;20040;-21
2022/01/08 00:02:58;;;;;;;26.30;12.90;;;;;;;5.46;90.29;100457.75;5049658;28;20279;-21
2022/01/08 00:05:24;;;;;;;22.67;12.98;;;;;;;5.47;89.33;100455.91;5049365;28;20037;-21
2022/01/08 00:07:49;;;;;;;23.98;13.48;;;;;;;5.49;89.52;100433.56;5066934;28;20078;-21
2022/01/08 00:10:15;;;;;;;24.35;13.20;;;;;;;5.61;88.71;100437.44;5067653;28;20025;-20
2022/01/08 00:12:40;;;;;;;22.55;12.85;;;;;;;5.41;88.96;100444.19;5067201;28;20055;-20
2022/01/08 00:15:07;;;;;;;25.50;14.60;;;;;;;5.12;90.24;100437.78;5066830;28;20032;-20
2022/01/08 00:17:36;;;;;;;25.55;14.88;;;;;;;5.18;90.07;100434.44;5070131;28;20039;-20
2022/01/08 00:20:02;;;;;;;28.17;14.70;;;;;;;5.33;89.65;100423.09;5067547;28;20041;-20
2022/01/08 00:22:27;;;;;;;24.13;14.00;;;;;;;5.39;89.55;100427.69;5067121;28;20101;-23
2022/01/08 00:24:53;;;;;;;24.92;14.07;;;;;;;5.64;88.80;100431.81;5067585;28;20555;-20
2022/01/08 00:27:20;;;;;;;25.60;13.82;;;;;;;5.35;89.62;100419.31;5067491;28;20047;-20
2022/01/08 00:29:45;;;;;;;22.05;12.93;;;;;;;5.34;89.88;100427.41;5049210;28;20032;-20
2022/01/08 00:32:11;;;;;;;25.15;13.52;;;;;;;5.28;89.84;100428.09;5067355;28;20110;-20
2022/01/08 00:34:36;;;;;;;25.17;13.05;;;;;;;5.27;90.60;100421.16;5066612;28;20051;-20
2022/01/08 00:37:02;;;;;;;22.98;12.68;;;;;;;5.28;90.47;100406.94;5066921;28;20036;-20
2022/01/08 00:39:27;;;;;;;21.13;12.60;;;;;;;5.39;89.83;100422.41;5067598;28;20028;-20
2022/01/08 00:41:53;;;;;;;24.95;13.02;;;;;;;5.63;89.26;100424.84;5067096;28;20032;-20
2022/01/08 00:44:18;;;;;;;23.35;11.93;;;;;;;5.50;88.51;100419.34;5067582;28;20032;-20
2022/01/08 00:46:44;;;;;;;20.00;11.27;;;;;;;5.37;89.62;100411.16;5067385;28;20033;-21
2022/01/08 00:49:09;;;;;;;22.05;11.82;;;;;;;5.50;89.54;100419.34;5066713;28;20032;-20
2022/01/08 00:51:35;;;;;;;22.92;12.93;;;;;;;5.57;89.38;100414.16;5067044;28;20035;-21
2022/01/08 00:54:00;;;;;;;22.42;12.32;;;;;;;5.47;88.85;100403.81;5067283;28;20036;-21
2022/01/08 00:56:25;;;;;;;25.52;14.15;;;;;;;5.39;89.57;100419.75;5048908;28;20575;-20
2022/01/08 00:58:51;;;;;;;20.88;12.05;;;;;;;5.31;90.07;100391.56;5067225;28;20079;-20
2022/01/08 01:01:16;;;;;;;22.25;11.85;;;;;;;5.24;90.45;100399.34;5066540;28;20032;-20
2022/01/08 01:03:42;;;;;;;21.17;11.35;;;;;;;5.33;91.16;100380.78;5049049;28;20712;-20
2022/01/08 01:06:07;;;;;;;21.67;11.52;;;;;;;5.44;90.27;100375.09;5067066;28;20047;-20
2022/01/08 01:08:33;;;;;;;20.95;12.18;;;;;;;5.47;89.52;100364.16;5066924;28;20036;-21
2022/01/08 01:10:59;;;;;;;21.75;11.90;;;;;;;5.49;88.63;100356.84;5048723;28;20029;-21
2022/01/08 01:13:24;;;;;;;23.48;12.02;;;;;;;5.39;88.92;100369.50;5048912;28;20797;-20
2022/01/08 01:15:50;;;;;;;24.70;13.07;;;;;;;5.48;90.31;100376.38;5066947;28;20040;-20
2022/01/08 01:18:15;;;;;;;22.92;12.18;;;;;;;5.24;90.12;100364.97;5066724;28;20044;-21
2022/01/08 01:20:41;;;;;;;22.38;12.25;;;;;;;5.34;89.94;100366.56;5066972;28;20412;-20
2022/01/08 01:23:17;;;;;;;23.88;13.52;;;;;;;5.22;91.23;100360.88;5066504;28;20025;-20
2022/01/08 01:25:50;;;;;;;25.75;13.80;;;;;;;5.42;90.80;100375.25;5066683;28;20710;-20
2022/01/08 01:28:36;;;;;;;27.05;14.55;;;;;;;5.02;90.41;100353.41;5066832;28;20037;-20
2022/01/08 01:47:05;;;;;;;;;;;;;;;5.21;91.29;100325.69;5068702;28;20487;-21
2022/01/08 01:49:35;;;;;;;23.65;12.27;;;;;;;5.39;90.66;100321.91;5070680;28;20465;-20
2022/01/08 01:52:01;;;;;;;24.00;12.70;;;;;;;5.46;89.01;100301.69;5070549;28;20036;-20
2022/01/08 01:54:29;;;;;;;24.42;12.60;;;;;;;5.39;90.22;100314.81;5070219;28;20028;-20
2022/01/08 01:56:55;;;;;;;;;;;;;;;5.41;90.41;100325.19;5070545;28;20556;-21
2022/01/08 01:59:20;;;;;;;25.23;13.75;;;;;;;5.30;90.37;100307.09;5070275;28;20027;-20
2022/01/08 02:01:46;;;;;;;24.05;13.23;;;;;;;5.38;90.38;100322.91;5069847;28;20032;-21
2022/01/08 02:04:11;;;;;;;22.52;12.63;;;;;;;5.54;89.80;100320.13;5070462;28;20032;-20
2022/01/08 02:06:37;;;;;;;23.50;12.85;;;;;;;5.53;90.18;100317.66;5070420;28;20033;-20
2022/01/08 02:09:02;;;;;;;24.92;12.90;;;;;;;5.40;90.12;100324.38;5069845;28;20446;-20
2022/01/08 02:11:28;;;;;;;23.40;13.43;;;;;;;5.29;90.93;100316.88;5069954;28;20028;-20
2022/01/08 02:14:03;;;;;;;23.13;12.35;;;;;;;5.40;90.39;100323.56;5069866;28;20032;-20
2022/01/08 02:16:29;;;;;;;24.65;12.50;;;;;;;5.26;90.71;100321.69;5069802;28;20082;-21
2022/01/08 02:18:54;;;;;;;23.25;12.98;;;;;;;5.12;90.64;100288.91;5069480;28;20087;-21
2022/01/08 02:21:20;;;;;;;23.58;12.25;;;;;;;4.99;92.39;100322.03;5069408;28;20033;-20
2022/01/08 02:23:47;;;;;;;24.63;12.63;;;;;;;5.05;91.41;100320.53;5069805;28;20519;-20
2022/01/08 02:26:12;;;;;;;20.23;11.18;;;;;;;5.08;92.17;100322.00;5069747;28;20144;-21
2022/01/08 02:28:38;;;;;;;23.02;11.65;;;;;;;4.99;91.99;100310.66;5051755;28;20484;-20
2022/01/08 02:31:04;;;;;;;23.75;11.70;;;;;;;4.91;92.55;100305.44;5051502;28;20032;-20
2022/01/08 02:33:29;;;;;;;19.73;9.75;;;;;;;5.03;93.02;100312.75;5069385;28;20094;-21
2022/01/08 02:35:55;;;;;;;21.80;10.27;;;;;;;5.13;91.70;100309.88;5051484;28;20094;-21
2022/01/08 02:38:20;;;;;;;21.45;10.77;;;;;;;5.32;91.41;100305.09;5069513;28;20574;-21
2022/01/08 02:41:00;;;;;;;21.67;11.65;;;;;;;5.34;90.94;100298.63;5069546;28;20085;-22
2022/01/08 02:43:27;;;;;;;19.95;10.48;;;;;;;5.40;91.06;100297.09;5069348;28;20485;-21
2022/01/08 02:45:53;;;;;;;19.70;10.25;;;;;;;5.23;91.60;100281.38;5069261;28;20603;-20
2022/01/08 02:48:18;;;;;;;19.00;9.93;;;;;;;5.06;91.89;100292.25;5051330;28;20123;-20
2022/01/08 02:50:44;;;;;;;18.90;10.05;;;;;;;5.06;92.92;100295.72;5069029;28;20040;-20
2022/01/08 02:53:09;;;;;;;20.40;10.57;;;;;;;5.13;91.56;100291.38;5068966;28;20067;-20
2022/01/08 02:55:36;;;;;;;19.05;9.50;;;;;;;5.30;91.89;100284.13;5069368;28;20117;-20
2022/01/08 02:58:02;;;;;;;17.77;9.02;;;;;;;5.30;91.21;100291.25;5050426;28;20036;-20
2022/01/08 03:00:28;;;;;;;18.60;8.90;;;;;;;5.12;91.29;100275.69;5068897;28;20453;-21
2022/01/08 03:02:53;;;;;;;18.40;9.13;;;;;;;5.19;92.26;100287.19;5068896;28;20094;-20
2022/01/08 03:05:19;;;;;;;17.63;9.35;;;;;;;4.98;93.23;100282.56;5050602;28;20036;-20
2022/01/08 03:07:45;;;;;;;18.20;9.82;;;;;;;5.07;92.92;100268.31;5068687;28;20404;-21
2022/01/08 03:10:13;;;;;;;17.52;8.63;;;;;;;5.04;92.47;100284.50;5050653;28;20028;-21
2022/01/08 03:12:41;;;;;;;17.53;9.57;;;;;;;5.09;92.75;100278.69;5068965;28;20029;-20
2022/01/08 03:15:13;;;;;;;19.00;8.93;;;;;;;5.16;91.83;100284.91;5068387;28;20279;-21
2022/01/08 03:17:39;;;;;;;18.88;9.38;;;;;;;5.10;92.19;100280.34;5068553;28;20052;-20
2022/01/08 03:20:07;;;;;;;18.55;9.38;;;;;;;5.10;91.35;100262.66;5050217;28;20367;-20
2022/01/08 03:22:33;;;;;;;20.10;9.93;;;;;;;4.98;92.34;100277.28;5068243;28;20029;-21
2022/01/08 03:24:59;;;;;;;20.13;10.35;;;;;;;5.00;93.34;100280.56;5050504;28;20043;-20
2022/01/08 03:27:25;;;;;;;19.13;10.13;;;;;;;5.16;92.30;100283.09;5068543;28;20036;-20
2022/01/08 03:29:50;;;;;;;20.52;11.10;;;;;;;5.17;92.62;100287.38;5068110;28;20043;-20
2022/01/08 03:32:16;;;;;;;20.48;11.35;;;;;;;5.04;93.36;100266.00;5068409;28;20028;-20
2022/01/08 03:34:41;;;;;;;19.52;11.85;;;;;;;5.24;92.42;100277.72;5050217;28;20411;-21
2022/01/08 03:37:07;;;;;;;22.23;12.48;;;;;;;5.33;92.18;100272.38;5050396;28;20036;-22
2022/01/08 03:39:32;;;;;;;21.77;12.20;;;;;;;5.35;91.09;100275.66;5068893;28;20040;-21
2022/01/08 03:41:58;;;;;;;21.08;12.15;;;;;;;5.51;90.41;100278.13;5067934;28;20372;-20
2022/01/08 03:44:23;;;;;;;19.67;11.10;;;;;;;5.49;90.74;100261.63;5068372;28;20056;-20
2022/01/08 03:46:49;;;;;;;22.55;12.55;;;;;;;5.43;90.40;100259.69;5068079;28;20466;-20
2022/01/08 03:49:25;;;;;;;23.45;12.88;;;;;;;5.22;91.16;100247.19;5067673;28;20035;-20
2022/01/08 03:51:54;;;;;;;21.77;12.93;;;;;;;5.38;91.27;100267.38;5051585;28;20059;-20
2022/01/08 03:54:20;;;;;;;21.45;12.25;;;;;;;5.66;89.78;100269.38;5067972;28;20044;-20
2022/01/08 03:56:46;;;;;;;23.75;12.20;;;;;;;5.94;88.58;100273.03;5068026;28;20043;-20
2022/01/08 03:59:11;;;;;;;20.75;10.98;;;;;;;5.89;88.37;100264.03;5049711;28;20853;-20
2022/01/08 04:01:36;;;;;;;21.75;12.10;;;;;;;5.90;88.88;100258.53;5067921;28;20032;-21
2022/01/08 04:04:02;;;;;;;17.77;11.05;;;;;;;5.75;88.19;100252.44;5050005;28;20035;-21
2022/01/08 04:06:27;;;;;;;21.10;12.85;;;;;;;5.96;88.71;100268.41;5049951;28;20143;-20
2022/01/08 04:08:57;;;;;;;19.88;11.35;;;;;;;5.78;89.54;100267.94;5067639;28;20044;-20
2022/01/08 04:11:24;;;;;;;20.40;12.60;;;;;;;5.94;88.83;100272.22;5067675;28;20055;-20
2022/01/08 04:13:49;;;;;;;19.67;11.18;;;;;;;6.26;86.75;100255.16;5049644;28;20036;-20
2022/01/08 04:16:19;;;;;;;20.25;11.80;;;;;;;6.32;85.97;100274.78;5067500;28;20024;-21
2022/01/08 04:18:45;;;;;;;19.30;10.95;;;;;;;6.04;86.95;100270.97;5067395;28;20098;-20
2022/01/08 04:21:58;;;;;;;17.98;10.45;;;;;;;6.10;87.54;100271.25;5067639;28;20764;-20
2022/01/08 04:24:08;;;;;;;18.13;10.50;;;;;;;6.00;87.21;100245.88;5067133;28;20042;-20
2022/01/08 04:26:34;;;;;;;19.08;10.68;;;;;;;6.03;87.57;100257.94;5067608;28;20032;-21
2022/01/08 04:28:59;;;;;;;19.38;10.43;;;;;;;5.78;87.86;100266.13;5049396;28;20423;-20
2022/01/08 04:31:25;;;;;;;15.70;9.63;;;;;;;5.44;89.55;100234.91;5067299;28;20036;-21
2022/01/08 04:33:51;;;;;;;18.75;10.88;;;;;;;5.38;90.79;100262.09;5067532;28;20129;-20
2022/01/08 04:36:16;;;;;;;16.17;10.05;;;;;;;5.69;89.73;100263.75;5049424;28;20051;-21
2022/01/08 04:38:42;;;;;;;18.27;11.00;;;;;;;5.64;89.08;100251.88;5067469;28;20842;-21
2022/01/08 04:41:07;;;;;;;18.27;10.23;;;;;;;5.77;88.90;100245.13;5067189;28;20036;-20
2022/01/08 04:43:36;;;;;;;17.02;10.07;;;;;;;6.04;87.69;100257.72;5067310;28;20455;-21
2022/01/08 04:46:02;;;;;;;16.52;9.73;;;;;;;6.03;87.21;100258.75;5067700;28;20043;-20
2022/01/08 04:48:27;;;;;;;18.92;11.07;;;;;;;6.27;86.87;100256.78;5067506;28;20037;-20
2022/01/08 04:50:53;;;;;;;17.88;9.93;;;;;;;6.14;87.01;100254.00;5067554;28;20515;-21
2022/01/08 04:53:18;;;;;;;18.40;11.02;;;;;;;6.12;87.02;100248.06;5067239;28;20024;-21
2022/01/08 04:55:44;;;;;;;17.45;10.02;;;;;;;5.92;87.47;100253.06;5067340;28;20032;-21
2022/01/08 04:58:09;;;;;;;20.33;11.30;;;;;;;5.82;88.62;100259.47;5067233;28;20492;-20
2022/01/08 05:00:37;;;;;;;22.05;14.23;;;;;;;5.97;88.13;100251.53;5049232;28;20034;-20
2022/01/08 05:03:02;;;;;;;19.75;12.65;;;;;;;5.91;88.80;100262.84;5049073;28;20412;-20
2022/01/08 05:05:27;;;;;;;20.95;12.30;;;;;;;5.70;89.48;100249.50;5067424;28;20021;-20
2022/01/08 05:07:53;;;;;;;22.35;13.18;;;;;;;5.63;89.32;100230.91;5067366;28;20028;-20
2022/01/08 05:10:18;;;;;;;24.48;14.00;;;;;;;5.77;88.62;100256.53;5067366;28;20085;-21
2022/01/08 05:12:44;;;;;;;21.58;13.40;;;;;;;5.72;89.61;100243.06;5067097;28;20032;-21
2022/01/08 05:15:10;;;;;;;33.97;21.38;;;;;;;6.01;88.75;100254.66;5067233;28;20511;-20
2022/01/08 05:17:36;;;;;;;66.43;44.13;;;;;;;5.77;89.20;100240.66;5066884;28;20053;-20
2022/01/08 05:20:06;;;;;;;38.38;27.00;;;;;;;6.08;88.48;100249.44;5049257;28;20040;-22
2022/01/08 05:22:49;;;;;;;33.88;23.63;;;;;;;5.90;89.11;100233.91;5069943;28;20029;-20
2022/01/08 05:25:19;;;;;;;23.60;14.07;;;;;;;5.89;88.90;100233.09;5071160;28;20029;-22
2022/01/08 05:27:45;;;;;;;19.70;12.02;;;;;;;5.93;88.70;100246.78;5071100;28;20037;-21
2022/01/08 05:30:11;;;;;;;20.63;11.07;;;;;;;6.27;87.45;100246.19;5071013;28;20093;-22
2022/01/08 05:32:37;;;;;;;23.08;13.15;;;;;;;6.33;nan;100234.03;5053138;28;20032;-22
2022/01/08 05:35:02;;;;;;;21.23;12.20;;;;;;;6.12;87.26;100240.13;5071127;28;20036;-21
2022/01/08 05:37:28;;;;;;;21.73;12.65;;;;;;;6.26;87.10;100244.56;5071142;28;20032;-20
2022/01/08 05:39:53;;;;;;;24.98;14.15;;;;;;;5.49;89.51;100211.38;5052901;28;20033;-20
2022/01/08 05:42:19;;;;;;;32.38;17.08;;;;;;;5.32;89.95;100215.19;5070636;28;20250;-21
2022/01/08 05:44:44;;;;;;;24.95;13.80;;;;;;;5.60;89.70;100232.09;5070818;28;20162;-22
2022/01/08 05:47:10;;;;;;;23.55;13.23;;;;;;;5.32;90.71;100241.66;5070502;28;20032;-21
2022/01/08 05:49:35;;;;;;;25.20;13.13;;;;;;;5.36;91.46;100235.00;5070872;28;20115;-21
2022/01/08 05:52:01;;;;;;;21.77;11.80;;;;;;;5.18;92.52;100233.50;5052755;28;20393;-21
2022/01/08 05:54:26;;;;;;;21.98;13.00;;;;;;;5.09;93.89;100242.50;5070531;28;20518;-20
2022/01/08 05:56:52;;;;;;;22.42;12.45;;;;;;;5.12;93.09;100226.28;5053178;28;20032;-20
2022/01/08 05:59:18;;;;;;;25.90;13.10;;;;;;;5.39;92.41;100242.56;5070319;28;20074;-20
2022/01/08 06:01:43;;;;;;;24.88;12.80;;;;;;;5.30;92.15;100236.53;5070539;28;20040;-21
2022/01/08 06:04:09;;;;;;;24.95;12.30;;;;;;;5.46;91.95;100243.47;5070664;28;20101;-20
2022/01/08 06:06:35;;;;;;;24.15;12.80;;;;;;;5.34;90.75;100229.06;5070411;28;20397;-21
2022/01/08 06:09:01;;;;;;;30.42;15.20;;;;;;;5.37;91.75;100240.09;5070036;28;20401;-22
2022/01/08 06:11:27;;;;;;;29.88;14.57;;;;;;;5.37;90.99;100245.41;5070532;28;20110;-20
2022/01/08 06:13:52;;;;;;;30.42;15.70;;;;;;;5.34;92.01;100244.94;5070335;28;20895;-20
2022/01/08 06:16:18;;;;;;;24.67;12.43;;;;;;;5.34;92.71;100252.88;5070235;28;20040;-20
2022/01/08 06:18:43;;;;;;;25.52;13.95;;;;;;;5.24;91.94;100239.91;5069645;28;20429;-20
2022/01/08 06:21:09;;;;;;;26.17;12.80;;;;;;;5.38;91.78;100244.38;5051874;28;20078;-20
2022/01/08 06:23:34;;;;;;;23.92;12.57;;;;;;;5.52;91.82;100241.94;5069979;28;20032;-20
2022/01/08 06:26:00;;;;;;;25.08;12.55;;;;;;;5.73;91.45;100254.44;5051993;28;20102;-20
2022/01/08 06:28:25;;;;;;;23.85;12.27;;;;;;;5.94;89.82;100228.03;5035373;28;20092;-21
2022/01/08 06:30:52;;;;;;;19.30;10.90;;;;;;;6.07;88.81;100245.13;5069787;28;20032;-21
2022/01/08 06:33:18;;;;;;;24.25;13.88;;;;;;;5.91;88.82;100244.31;5050713;28;20036;-20
2022/01/08 06:35:44;;;;;;;24.40;12.70;;;;;;;5.97;89.16;100256.03;5069841;28;20024;-20
2022/01/08 06:38:09;;;;;;;20.13;10.80;;;;;;;6.15;89.00;100252.97;5069595;28;20132;-21
2022/01/08 06:40:35;;;;;;;22.15;11.45;;;;;;;5.75;89.46;100220.69;5069922;28;20151;-20
2022/01/08 06:43:01;;;;;;;20.60;10.27;;;;;;;5.90;89.05;100228.59;5051160;28;20094;-21
2022/01/08 06:45:26;;;;;;;27.83;13.38;;;;;;;5.64;90.38;100246.59;5069662;28;20040;-20
2022/01/08 06:47:51;;;;;;;26.45;14.25;;;;;;;5.71;90.43;100236.09;5069673;28;20043;-28
2022/01/08 06:50:17;;;;;;;22.35;11.52;;;;;;;5.59;90.05;100237.56;5069808;28;20090;-20
2022/01/08 06:52:42;;;;;;;24.73;13.15;;;;;;;5.61;90.95;100224.97;5051384;28;20016;-20
2022/01/08 06:55:08;;;;;;;22.63;12.13;;;;;;;6.06;89.94;100246.16;5069123;28;20040;-20
2022/01/08 06:57:34;;;;;;;28.42;16.65;;;;;;;6.11;89.34;100246.41;5069818;28;20454;-20
2022/01/08 07:00:03;;;;;;;44.20;24.27;;;;;;;6.41;88.04;100247.16;5069568;28;20036;-20
2022/01/08 07:02:29;;;;;;;34.05;19.92;;;;;;;5.99;88.56;100254.81;5069378;28;20028;-20
2022/01/08 07:04:54;;;;;;;71.63;35.55;;;;;;;6.03;89.45;100247.34;5069738;28;20043;-20
2022/01/08 07:07:20;;;;;;;56.40;29.50;;;;;;;5.92;89.40;100240.66;5068933;28;20035;-20
2022/01/08 07:09:45;;;;;;;53.53;30.70;;;;;;;5.89;90.23;100251.63;5069480;28;20028;-21
2022/01/08 07:12:10;;;;;;;46.30;26.17;;;;;;;5.91;90.43;100241.66;5069377;28;20043;-21
2022/01/08 07:14:36;;;;;;;32.80;17.02;;;;;;;5.94;89.72;100238.63;5069046;28;20028;-20
2022/01/08 07:17:02;;;;;;;31.38;16.48;;;;;;;5.77;90.85;100240.66;5068969;28;20058;-21
2022/01/08 07:19:27;;;;;;;32.17;18.20;;;;;;;6.20;90.53;100240.81;5050696;28;20052;-20
2022/01/08 07:21:53;;;;;;;29.60;17.15;;;;;;;6.08;89.92;100228.25;5068855;28;20729;-20
2022/01/08 07:24:18;;;;;;;27.42;14.77;;;;;;;6.08;90.64;100234.38;5068898;28;20427;-21
2022/01/08 07:26:43;;;;;;;31.45;18.55;;;;;;;5.99;91.31;100228.34;5068901;28;20037;-21
2022/01/08 07:29:09;;;;;;;18.27;10.75;;;;;;;6.25;90.04;100232.31;5068998;28;20032;-21
2022/01/08 07:31:34;;;;;;;22.73;12.55;;;;;;;6.48;89.16;100237.47;5050804;28;20033;-20
2022/01/08 07:34:00;;;;;;;34.35;20.05;;;;;;;6.46;89.45;100233.34;5068803;28;20051;-20
2022/01/08 07:36:25;;;;;;;62.53;31.92;;;;;;;9.91;91.05;100242.81;5068603;28;20025;-20
2022/01/08 07:38:51;;;;;;;56.70;31.00;;;;;;;16.72;61.34;100244.53;5068550;28;20070;-20
2022/01/08 07:41:16;;;;;;;26.05;15.23;;;;;;;18.41;46.86;100253.69;5068416;28;20047;-21
2022/01/08 07:43:42;;;;;;;23.20;13.02;;;;;;;20.34;44.24;100239.38;5067914;28;20036;-22
2022/01/08 07:46:07;;;;;;;13.68;7.45;;;;;;;20.34;39.84;100250.22;5068332;28;20055;-21
2022/01/08 07:48:33;;;;;;;11.48;7.22;;;;;;;15.18;50.44;100247.13;5068571;28;20043;-21
2022/01/08 07:50:58;;;;;;;14.80;7.82;;;;;;;12.79;59.39;100242.75;5068241;28;20029;-20
2022/01/08 07:53:24;;;;;;;10.80;6.20;;;;;;;10.83;66.13;100241.59;5050642;28;20025;-21
2022/01/08 07:55:49;;;;;;;12.30;7.10;;;;;;;10.47;71.00;100246.75;5067950;28;20036;-20
2022/01/08 07:58:20;;;;;;;13.45;7.22;;;;;;;10.79;69.82;100237.72;5068149;28;20111;-20
2022/01/08 08:00:48;;;;;;;11.27;6.65;;;;;;;10.89;67.73;100237.25;5068255;28;20032;-20
2022/01/08 08:03:14;;;;;;;14.02;6.88;;;;;;;11.50;68.08;100226.84;5067892;28;20115;-20
2022/01/08 08:05:40;;;;;;;15.40;7.80;;;;;;;11.77;67.34;100216.69;5068311;28;20467;-20
2022/01/08 08:08:05;;;;;;;15.75;11.82;;;;;;;11.32;68.68;100224.97;5068696;28;20090;-22
2022/01/08 08:10:31;;;;;;;13.57;7.75;;;;;;;11.07;69.57;100207.09;5068269;28;20029;-20
2022/01/08 08:12:56;;;;;;;30.00;18.17;;;;;;;11.00;69.17;100227.72;5066922;28;20400;-22
2022/01/08 08:15:22;;;;;;;29.15;26.05;;;;;;;10.54;70.23;100212.84;5068098;28;20174;-20
2022/01/08 08:17:47;;;;;;;21.42;17.75;;;;;;;11.07;68.75;100209.78;5067784;28;20045;-20
2022/01/08 08:20:13;;;;;;;12.77;7.20;;;;;;;10.69;70.37;100229.38;5067693;28;20040;-21
2022/01/08 08:22:39;;;;;;;35.05;19.90;;;;;;;10.47;69.40;100212.06;5067551;28;20028;-20
2022/01/08 08:25:07;;;;;;;8.10;4.85;;;;;;;10.02;71.25;100227.00;5067380;28;20045;-21
2022/01/08 08:27:33;;;;;;;25.40;15.88;;;;;;;10.57;70.42;100221.22;5049921;28;20024;-20
2022/01/08 08:29:58;;;;;;;155.88;89.93;;;;;;;10.33;71.66;100212.13;5067736;28;20482;-21
2022/01/08 08:32:24;;;;;;;28.35;17.65;;;;;;;9.84;70.31;100205.56;5067583;28;20028;-21
2022/01/08 08:34:51;;;;;;;11.77;6.85;;;;;;;8.34;76.67;100195.41;5067973;28;20557;-20
2022/01/08 08:37:17;;;;;;;19.27;13.57;;;;;;;7.94;80.01;100195.25;5067522;28;20097;-20
2022/01/08 08:39:42;;;;;;;8.80;5.20;;;;;;;7.20;83.45;100207.31;5067633;28;20024;-20
2022/01/08 08:42:07;;;;;;;35.63;22.20;;;;;;;6.64;86.67;100189.53;5067422;28;20037;-20
2022/01/08 08:44:33;;;;;;;14.82;9.85;;;;;;;6.71;88.24;100200.19;5067624;28;20028;-21
2022/01/08 08:46:58;;;;;;;46.47;34.35;;;;;;;6.83;87.63;100180.09;5067165;28;20415;-22
2022/01/08 08:49:24;;;;;;;12.98;8.55;;;;;;;7.07;87.91;100193.97;5067619;28;20111;-21
2022/01/08 08:51:49;;;;;;;55.88;37.22;;;;;;;7.18;86.75;100198.72;5068044;28;20040;-21
2022/01/08 08:54:15;;;;;;;38.88;24.92;;;;;;;6.98;86.82;100184.50;5067503;28;20032;-21
2022/01/08 08:56:42;;;;;;;58.88;35.45;;;;;;;7.02;87.86;100191.88;5066664;28;20548;-20
2022/01/08 08:59:08;;;;;;;9.87;6.20;;;;;;;7.31;87.10;100195.34;5067186;28;20062;-20
2022/01/08 09:01:33;;;;;;;114.07;57.90;;;;;;;7.14;87.06;100189.50;5067260;28;20594;-20
2022/01/08 09:03:59;;;;;;;99.40;53.60;;;;;;;7.05;87.43;100174.78;5067361;28;20036;-22
2022/01/08 09:06:26;;;;;;;45.50;28.63;;;;;;;6.86;88.33;100163.00;5067257;28;20040;-21
2022/01/08 09:08:52;;;;;;;67.30;42.65;;;;;;;6.82;89.62;100154.63;5067229;28;20032;-20
2022/01/08 09:11:17;;;;;;;26.40;18.40;;;;;;;6.81;89.06;100166.22;5067588;28;20035;-20
2022/01/08 09:13:43;;;;;;;48.95;30.27;;;;;;;6.97;89.21;100161.66;5067327;28;20051;-20
2022/01/08 09:16:08;;;;;;;115.13;55.35;;;;;;;6.94;88.94;100159.38;5067592;28;20025;-20
2022/01/08 09:18:35;;;;;;;64.72;35.53;;;;;;;6.87;89.18;100139.97;5066978;28;20052;-22
2022/01/08 09:21:00;;;;;;;56.38;29.55;;;;;;;6.83;90.27;100131.56;5067163;28;20040;-20
2022/01/08 09:23:25;;;;;;;147.43;81.60;;;;;;;6.64;91.36;100138.38;5067304;28;20397;-20
2022/01/08 09:25:51;;;;;;;66.60;39.45;;;;;;;6.62;92.52;100137.75;5067258;28;20086;-20
2022/01/08 09:28:16;;;;;;;31.05;22.48;;;;;;;6.79;91.46;100138.28;5067342;28;20480;-20
2022/01/08 09:30:42;;;;;;;14.93;8.85;;;;;;;6.48;92.01;100125.34;5067257;28;20032;-21
2022/01/08 09:33:07;;;;;;;31.13;22.60;;;;;;;6.72;92.21;100126.78;5067334;28;20028;-20
2022/01/08 09:35:33;;;;;;;14.98;8.50;;;;;;;6.70;92.29;100113.75;5049138;28;20047;-20
2022/01/08 09:37:58;;;;;;;32.17;21.35;;;;;;;6.84;92.40;100119.94;5067283;28;20044;-20
2022/01/08 09:40:24;;;;;;;13.20;8.95;;;;;;;6.65;91.85;100110.84;5067085;28;20454;-20
2022/01/08 09:42:49;;;;;;;35.55;26.77;;;;;;;6.44;93.78;100115.16;5066990;28;20024;-20
2022/01/08 09:45:15;;;;;;;18.20;11.40;;;;;;;6.42;94.09;100111.88;5048958;28;20044;-22
2022/01/08 09:47:40;;;;;;;19.42;13.88;;;;;;;6.64;93.45;100106.56;5067160;28;20032;-20
2022/01/08 09:50:06;;;;;;;11.13;6.60;;;;;;;6.61;94.11;100093.69;5067058;28;20472;-21
2022/01/08 09:52:32;;;;;;;19.77;13.15;;;;;;;6.70;93.04;100095.19;5066952;28;20052;-21
2022/01/08 09:54:57;;;;;;;11.27;6.63;;;;;;;6.59;92.57;100093.06;5066785;28;20040;-20
2022/01/08 09:57:23;;;;;;;10.60;7.20;;;;;;;6.52;93.58;100078.94;5067322;28;20036;-20
2022/01/08 09:59:48;;;;;;;10.77;6.55;;;;;;;6.99;92.22;100077.44;5067070;28;20393;-20
2022/01/08 10:02:15;;;;;;;14.90;8.25;;;;;;;7.08;91.96;100055.03;5066642;28;20119;-20
2022/01/08 10:04:41;;;;;;;21.88;15.38;;;;;;;7.28;90.48;100064.94;5048632;28;20041;-21
2022/01/08 10:07:17;;;;;;;21.50;13.65;;;;;;;7.11;91.18;100064.44;5067246;28;20382;-21
2022/01/08 10:10:00;;;;;;;24.40;15.10;;;;;;;7.01;91.65;100065.63;5070775;28;20477;-20
2022/01/08 10:12:38;;;;;;;87.80;74.85;;;;;;;6.99;91.20;100048.28;5070179;28;20393;-21
2022/01/08 10:17:48;;;;;;;32.75;22.08;;;;;;;7.10;91.32;100037.09;5070130;28;20444;-21
2022/01/08 10:20:31;;;;;;;29.95;23.60;;;;;;;7.02;91.34;100046.03;5069864;28;20583;-20
2022/01/08 10:23:09;;;;;;;37.58;24.65;;;;;;;7.03;91.98;100041.56;5053332;28;20055;-22
2022/01/08 10:25:34;;;;;;;33.15;19.52;;;;;;;6.92;92.30;100040.25;5070186;28;20055;-20
2022/01/08 10:28:00;;;;;;;30.10;19.48;;;;;;;6.61;93.29;100044.16;5075044;28;20431;-20
2022/01/08 10:30:26;;;;;;;12.23;7.15;;;;;;;6.83;92.84;100038.81;5079699;28;20024;-20
2022/01/08 10:32:56;;;;;;;56.58;36.40;;;;;;;6.34;94.55;100021.97;5077812;28;20028;-21
2022/01/08 10:35:45;;;;;;;22.60;16.17;;;;;;;6.45;95.20;100028.56;5078310;28;20036;-21
2022/01/08 10:38:11;;;;;;;12.98;8.55;;;;;;;6.59;95.05;100026.81;5078841;28;20028;-20
2022/01/08 10:40:37;;;;;;;17.58;11.90;;;;;;;6.66;93.88;100033.00;5084139;28;20036;-21
2022/01/08 10:43:03;;;;;;;21.38;12.07;;;;;;;6.52;93.95;100020.63;5069485;28;20029;-20
2022/01/08 10:45:34;;;;;;;25.77;15.70;;;;;;;6.54;94.01;100021.25;5042483;28;20024;-20
2022/01/08 10:48:04;;;;;;;18.23;11.07;;;;;;;6.64;94.33;100019.13;5077211;28;20878;-21
2022/01/08 10:50:29;;;;;;;27.73;16.98;;;;;;;6.70;93.87;100015.69;5078229;28;20021;-21
2022/01/08 10:52:54;;;;;;;25.00;16.52;;;;;;;6.84;92.56;100009.47;5068844;28;20855;-20
2022/01/08 10:55:32;;;;;;;47.70;29.95;;;;;;;6.61;93.25;100008.91;5071780;28;20480;-20
2022/01/08 10:57:58;;;;;;;40.75;24.45;;;;;;;6.52;94.12;99989.69;5089672;28;20032;-20
2022/01/08 11:00:30;;;;;;;35.63;22.25;;;;;;;6.73;93.49;99996.75;5089488;28;20028;-20
2022/01/08 11:02:56;;;;;;;38.80;26.67;;;;;;;6.90;93.27;99997.22;5089145;28;20039;-21
2022/01/08 11:05:21;;;;;;;26.58;18.15;;;;;;;7.01;92.75;99994.03;5089950;28;20047;-20
2022/01/08 11:07:47;;;;;;;26.70;19.15;;;;;;;6.86;92.97;99995.16;5089137;28;20032;-21
2022/01/08 11:10:19;;;;;;;30.88;19.98;;;;;;;6.88;93.63;99990.50;5089465;28;20032;-21
2022/01/08 11:12:46;;;;;;;24.50;13.80;;;;;;;6.75;93.41;99978.00;5089551;28;20031;-20
2022/01/08 11:17:48;;;;;;;25.92;16.95;;;;;;;6.91;92.19;99975.03;5089233;28;20043;-20
2022/01/08 11:20:18;;;;;;;43.22;28.55;;;;;;;7.03;92.43;99985.88;5088898;28;20145;-21
2022/01/08 11:22:45;;;;;;;36.20;22.77;;;;;;;7.35;92.25;99983.53;5089186;28;20533;-21
2022/01/08 11:25:28;;;;;;;37.15;22.63;;;;;;;7.34;91.39;99966.00;5089043;28;20033;-20
2022/01/08 11:28:03;;;;;;;53.30;40.25;;;;;;;7.58;90.70;99968.09;5088997;28;20065;-21
2022/01/08 11:30:32;;;;;;;68.45;36.67;;;;;;;7.21;90.81;99951.69;5070661;28;20500;-20
2022/01/08 11:33:03;;;;;;;69.47;39.67;;;;;;;7.20;91.69;99962.47;5069824;28;20575;-20
2022/01/08 11:35:31;;;;;;;47.13;25.88;;;;;;;7.11;91.46;99956.53;5054416;28;20034;-21
2022/01/08 11:37:56;;;;;;;18.40;12.63;;;;;;;7.41;90.55;99958.88;5088741;28;20050;-20